Time;durP1;ratioP1;P1;durP2;ratioP2;P2;SDS_P1;SDS_P2;PMS_P1;PMS_P2;Temp;Humidity;BMP_temperature;BMP_pressure;BME280_temperature;BME280_humidity;BME280_pressure;Samples;Min_cycle;Max_cycle;Signal;HPM_P1;HPM_P2
2023/03/26 00:00:54;;;;;;;10.37;2.10;;;;;;;13.25;53.43;99717.22;5040710;28;20025;-65
2023/03/26 00:03:21;;;;;;;12.25;2.58;;;;;;;13.23;53.50;99713.75;5039633;28;20028;-65
2023/03/26 00:05:47;;;;;;;14.52;2.15;;;;;;;13.20;53.51;99701.47;5039423;28;20043;-65
2023/03/26 00:08:14;;;;;;;11.70;2.08;;;;;;;13.07;53.70;99695.59;5037030;28;20027;-65
2023/03/26 00:10:40;;;;;;;13.47;3.27;;;;;;;13.12;53.36;99699.00;5037113;28;20080;-65
2023/03/26 00:13:07;;;;;;;7.40;1.95;;;;;;;13.21;53.22;99706.72;5040667;28;20452;-65
2023/03/26 00:15:34;;;;;;;12.20;2.72;;;;;;;13.27;53.11;99710.13;5038325;28;20056;-65
2023/03/26 00:18:00;;;;;;;9.15;2.00;;;;;;;13.25;53.12;99698.72;5038001;28;20026;-65
2023/03/26 00:20:27;;;;;;;9.50;1.70;;;;;;;13.24;53.14;99687.25;5039362;28;20029;-65
2023/03/26 00:22:54;;;;;;;8.57;1.73;;;;;;;13.27;53.08;99687.19;5037832;28;20029;-65
2023/03/26 00:25:20;;;;;;;11.07;1.70;;;;;;;13.30;53.13;99704.75;5040959;28;20132;-65
2023/03/26 00:27:45;;;;;;;10.57;2.17;;;;;;;13.33;53.15;99720.53;5038917;28;20163;-65
2023/03/26 00:30:11;;;;;;;10.43;1.80;;;;;;;13.33;52.97;99717.91;5038456;28;20048;-65
2023/03/26 00:32:37;;;;;;;9.68;1.88;;;;;;;13.23;53.40;99682.88;5039061;28;20029;-65
2023/03/26 00:35:03;;;;;;;6.03;1.47;;;;;;;13.19;53.24;99687.38;5039899;28;20080;-65
2023/03/26 00:37:29;;;;;;;9.13;1.83;;;;;;;13.22;53.21;99712.88;5040058;28;20032;-65
2023/03/26 00:40:05;;;;;;;9.38;1.75;;;;;;;13.21;53.42;99722.59;5040674;28;20033;-65
2023/03/26 00:42:32;;;;;;;12.07;1.70;;;;;;;13.20;53.30;99704.97;5041599;28;20108;-65
2023/03/26 00:44:57;;;;;;;10.77;1.65;;;;;;;13.18;53.38;99683.00;5038693;28;20025;-65
2023/03/26 00:47:24;;;;;;;9.25;1.80;;;;;;;13.20;53.27;99689.13;5041799;28;20056;-65
2023/03/26 00:49:49;;;;;;;10.67;1.70;;;;;;;13.23;53.03;99706.66;5039886;28;20029;-65
2023/03/26 00:52:17;;;;;;;9.65;2.00;;;;;;;13.28;53.35;99719.78;5041380;28;20029;-65
2023/03/26 00:54:44;;;;;;;6.37;1.57;;;;;;;13.28;53.24;99693.34;5043397;28;20059;-65
2023/03/26 00:57:11;;;;;;;7.60;1.58;;;;;;;13.29;53.42;99681.84;5038496;28;20041;-65
2023/03/26 00:59:37;;;;;;;9.25;2.13;;;;;;;13.31;53.19;99688.84;5038269;28;20029;-65
2023/03/26 01:02:03;;;;;;;9.32;1.60;;;;;;;13.37;53.11;99697.53;5038691;28;20833;-65
2023/03/26 01:04:33;;;;;;;8.47;1.70;;;;;;;13.40;53.20;99687.75;5038636;28;20030;-65
2023/03/26 01:07:02;;;;;;;10.10;1.80;;;;;;;13.34;53.96;99698.47;5038144;28;20034;-65
2023/03/26 01:09:36;;;;;;;11.55;1.48;;;;;;;13.32;54.11;99702.94;5037929;28;20363;-65
2023/03/26 01:12:05;;;;;;;10.70;1.85;;;;;;;13.27;54.57;99703.06;5038685;28;20102;-65
2023/03/26 01:14:31;;;;;;;11.17;1.40;;;;;;;13.27;54.30;99691.59;5038468;28;20108;-65
2023/03/26 01:16:59;;;;;;;13.32;1.70;;;;;;;13.21;54.60;99690.84;5052147;28;20049;-65
2023/03/26 01:19:28;;;;;;;7.13;1.50;;;;;;;13.23;54.37;99697.88;5058661;28;20036;-65
2023/03/26 01:21:54;;;;;;;9.47;1.60;;;;;;;13.24;54.44;99694.34;5057118;28;20025;-65
2023/03/26 01:24:19;;;;;;;10.52;1.67;;;;;;;13.20;54.52;99683.84;5058115;28;20544;-65
2023/03/26 01:27:01;;;;;;;7.30;1.67;;;;;;;13.15;54.66;99685.72;5058141;28;20057;-65
2023/03/26 01:29:38;;;;;;;8.15;1.48;;;;;;;13.16;54.78;99695.41;5058625;28;20041;-65
2023/03/26 01:32:10;;;;;;;7.25;1.23;;;;;;;13.17;54.66;99699.78;5038315;28;20033;-65
2023/03/26 01:35:03;;;;;;;8.80;2.05;;;;;;;13.17;54.53;99697.13;5038377;28;20108;-65
2023/03/26 01:37:31;;;;;;;7.13;1.77;;;;;;;13.15;54.83;99696.31;5038144;28;20025;-65
2023/03/26 01:40:04;;;;;;;8.38;1.42;;;;;;;13.16;54.53;99698.03;5037794;28;20456;-65
2023/03/26 01:42:39;;;;;;;7.97;1.42;;;;;;;13.14;54.81;99689.28;5037833;28;20036;-65
2023/03/26 01:45:10;;;;;;;7.03;1.35;;;;;;;13.15;54.89;99682.19;5038137;28;20048;-65
2023/03/26 01:47:38;;;;;;;8.40;1.50;;;;;;;13.14;54.98;99684.00;5037814;28;20044;-65
2023/03/26 01:50:04;;;;;;;9.83;1.90;;;;;;;13.06;55.29;99685.94;5038067;28;20061;-65
2023/03/26 01:52:30;;;;;;;8.60;1.50;;;;;;;13.07;55.13;99692.94;5045384;28;20508;-65
2023/03/26 01:54:56;;;;;;;7.18;1.70;;;;;;;13.09;55.13;99691.13;5057698;28;20393;-65
2023/03/26 01:57:46;;;;;;;10.63;2.15;;;;;;;13.03;55.65;99681.59;5049880;28;20481;-65
2023/03/26 02:00:27;;;;;;;10.98;2.10;;;;;;;12.94;55.97;99680.94;5037665;28;20025;-65
2023/03/26 02:03:08;;;;;;;8.57;1.70;;;;;;;12.94;55.70;99715.31;5037744;28;20136;-65
2023/03/26 02:05:40;;;;;;;9.70;1.77;;;;;;;12.91;55.78;99740.91;5036247;28;20078;-65
2023/03/26 02:08:30;;;;;;;6.20;1.60;;;;;;;12.90;56.58;99704.81;5037334;28;20025;-65
2023/03/26 02:10:58;;;;;;;7.38;1.67;;;;;;;12.92;56.01;99700.34;5037113;28;20050;-65
2023/03/26 02:13:25;;;;;;;7.43;1.63;;;;;;;12.94;56.16;99749.66;5037412;28;20037;-65
2023/03/26 02:15:59;;;;;;;7.50;1.57;;;;;;;12.95;56.30;99714.41;5037471;28;20037;-65
2023/03/26 02:18:35;;;;;;;7.88;1.30;;;;;;;12.99;55.95;99732.78;5057311;28;20044;-65
2023/03/26 02:21:18;;;;;;;8.65;1.70;;;;;;;13.05;55.72;99724.72;5057546;28;20078;-65
2023/03/26 02:23:45;;;;;;;7.75;1.50;;;;;;;13.10;55.60;99740.47;5055946;28;20035;-65
2023/03/26 02:26:12;;;;;;;7.75;1.70;;;;;;;13.15;55.46;99728.03;5056900;28;20090;-65
2023/03/26 02:28:38;;;;;;;7.13;1.30;;;;;;;13.20;55.42;99752.56;5057240;28;20436;-65
2023/03/26 02:31:04;;;;;;;11.60;1.70;;;;;;;13.21;55.60;99749.03;5044687;28;20030;-65
2023/03/26 02:33:30;;;;;;;9.35;1.58;;;;;;;13.24;55.16;99749.84;5037452;28;20031;-65
2023/03/26 02:36:03;;;;;;;12.07;1.90;;;;;;;13.25;55.36;99746.31;5036952;28;20508;-65
2023/03/26 02:38:36;;;;;;;8.63;1.50;;;;;;;13.21;55.53;99754.31;5036971;28;20032;-65
2023/03/26 02:41:02;;;;;;;8.40;1.50;;;;;;;13.16;55.40;99753.56;5035377;28;20029;-65
2023/03/26 02:43:28;;;;;;;9.43;1.73;;;;;;;13.15;55.67;99758.88;5036985;28;20132;-65
2023/03/26 02:45:53;;;;;;;10.43;2.00;;;;;;;13.13;55.45;99761.53;5036997;28;20029;-65
2023/03/26 02:48:19;;;;;;;8.73;1.77;;;;;;;13.12;55.62;99767.72;5050118;28;20029;-65
2023/03/26 02:50:48;;;;;;;11.10;1.70;;;;;;;13.11;55.67;99768.63;5054956;28;20158;-65
2023/03/26 02:53:15;;;;;;;11.80;2.03;;;;;;;13.08;55.74;99774.00;5036983;28;20125;-65
2023/03/26 02:55:40;;;;;;;8.25;1.55;;;;;;;13.07;55.66;99773.13;5035333;28;20033;-65
2023/03/26 02:58:06;;;;;;;9.57;1.40;;;;;;;13.06;55.58;99759.94;5036719;28;20036;-65
2023/03/26 03:00:32;;;;;;;9.70;1.50;;;;;;;13.08;55.70;99766.06;5035244;28;20025;-65
2023/03/26 03:02:58;;;;;;;8.00;1.30;;;;;;;13.15;55.97;99748.28;5036680;28;20508;-65
2023/03/26 03:05:27;;;;;;;8.13;1.95;;;;;;;13.23;55.95;99751.63;5036606;28;20025;-65
2023/03/26 03:07:56;;;;;;;6.30;1.38;;;;;;;13.32;55.75;99747.88;5036605;28;20025;-65
2023/03/26 03:10:23;;;;;;;7.63;1.80;;;;;;;13.39;55.85;99756.56;5036371;28;20529;-65
2023/03/26 03:12:48;;;;;;;8.25;1.23;;;;;;;13.43;55.82;99759.13;5036699;28;20444;-65
2023/03/26 03:15:14;;;;;;;8.17;1.23;;;;;;;13.48;56.00;99746.66;5036806;28;20087;-65
2023/03/26 03:17:40;;;;;;;6.50;1.05;;;;;;;13.53;56.18;99756.25;5049957;28;20028;-65
2023/03/26 03:20:10;;;;;;;10.50;1.53;;;;;;;13.55;56.08;99762.38;5056540;28;20032;-65
2023/03/26 03:22:35;;;;;;;8.95;1.40;;;;;;;13.58;56.47;99778.16;5056560;28;20041;-65
2023/03/26 03:25:02;;;;;;;10.77;1.30;;;;;;;13.61;56.46;99784.25;5056360;28;20400;-65
2023/03/26 03:27:27;;;;;;;8.03;1.30;;;;;;;13.64;56.53;99796.56;5055098;28;20712;-65
2023/03/26 03:29:54;;;;;;;7.90;1.13;;;;;;;13.66;56.34;99797.38;5053642;28;20048;-65
2023/03/26 03:32:21;;;;;;;10.33;1.30;;;;;;;13.67;56.57;99809.72;5036546;28;20026;-65
2023/03/26 03:34:49;;;;;;;7.70;1.25;;;;;;;13.67;56.61;99820.28;5036546;28;20030;-65
2023/03/26 03:37:15;;;;;;;8.55;1.40;;;;;;;13.65;56.42;99822.09;5036205;28;20033;-65
2023/03/26 03:39:41;;;;;;;6.93;1.00;;;;;;;13.63;56.44;99827.41;5036370;28;20100;-65
2023/03/26 03:42:06;;;;;;;6.47;1.17;;;;;;;13.62;56.41;99836.25;5036178;28;20117;-65
2023/03/26 03:44:31;;;;;;;8.37;1.20;;;;;;;13.61;56.42;99836.28;5043701;28;20370;-65
2023/03/26 03:46:57;;;;;;;10.43;1.20;;;;;;;13.60;56.58;99834.53;5056226;28;20029;-65
2023/03/26 03:49:22;;;;;;;7.05;1.50;;;;;;;13.60;56.58;99834.53;5056482;28;20025;-65
2023/03/26 03:51:47;;;;;;;9.27;1.50;;;;;;;13.59;56.99;99838.09;5045793;28;20029;-65
2023/03/26 03:54:13;;;;;;;6.77;1.43;;;;;;;13.59;56.88;99840.75;5036169;28;20049;-65
2023/03/26 03:56:38;;;;;;;8.27;1.20;;;;;;;13.60;57.18;99840.72;5034690;28;20112;-64
2023/03/26 03:59:04;;;;;;;7.40;1.03;;;;;;;13.61;57.56;99842.47;5036269;28;20087;-64
2023/03/26 04:01:30;;;;;;;6.55;1.23;;;;;;;13.62;57.62;99849.50;5036185;28;20493;-64
2023/03/26 04:03:57;;;;;;;8.15;0.90;;;;;;;13.63;57.81;99845.09;5036392;28;20033;-64
2023/03/26 04:06:24;;;;;;;5.90;0.85;;;;;;;13.63;57.92;99845.09;5034846;28;20116;-63
2023/03/26 04:08:52;;;;;;;5.80;1.00;;;;;;;13.63;58.09;99845.94;5035983;28;20059;-64
2023/03/26 04:11:18;;;;;;;8.30;0.90;;;;;;;13.63;58.24;99845.09;5036109;28;20049;-64
2023/03/26 04:13:43;;;;;;;7.83;1.13;;;;;;;13.64;58.47;99854.75;5034916;28;20024;-64
2023/03/26 04:16:09;;;;;;;6.93;0.90;;;;;;;13.62;58.88;99844.19;5037147;28;20264;-64
2023/03/26 04:18:36;;;;;;;8.93;1.20;;;;;;;13.63;59.18;99856.53;5054766;28;20090;-64
2023/03/26 04:21:06;;;;;;;7.32;1.25;;;;;;;13.63;59.08;99855.66;5056135;28;20040;-64
2023/03/26 04:23:33;;;;;;;8.20;1.30;;;;;;;13.62;59.46;99849.50;5056123;28;20024;-64
2023/03/26 04:26:06;;;;;;;9.68;1.00;;;;;;;13.61;59.45;99858.34;5055703;28;20408;-64
2023/03/26 04:28:45;;;;;;;7.03;1.00;;;;;;;13.61;59.78;99854.81;5055946;28;20033;-64
2023/03/26 04:31:14;;;;;;;7.60;0.90;;;;;;;13.61;59.56;99865.38;5042630;28;20033;-65
2023/03/26 04:33:47;;;;;;;8.95;1.17;;;;;;;13.61;59.95;99866.28;5034781;28;20482;-64
2023/03/26 04:36:15;;;;;;;7.80;1.30;;;;;;;13.61;60.13;99868.03;5036062;28;20029;-64
2023/03/26 04:38:43;;;;;;;9.30;1.00;;;;;;;13.63;59.88;99866.25;5035953;28;20026;-65
2023/03/26 04:41:11;;;;;;;7.13;1.02;;;;;;;13.61;60.03;99865.38;5036953;28;20529;-64
2023/03/26 04:43:45;;;;;;;6.72;0.90;;;;;;;13.62;59.83;99872.41;5038485;28;20500;-64
2023/03/26 04:46:12;;;;;;;5.00;0.70;;;;;;;13.62;59.80;99873.31;5039562;28;20033;-64
2023/03/26 04:48:37;;;;;;;9.37;1.17;;;;;;;13.63;59.64;99876.84;5039319;28;20074;-64
2023/03/26 04:51:08;;;;;;;8.43;0.90;;;;;;;13.64;59.68;99873.28;5039530;28;20047;-64
2023/03/26 04:53:34;;;;;;;5.80;0.73;;;;;;;13.64;59.37;99878.56;5039370;28;20025;-64
2023/03/26 04:56:28;;;;;;;8.65;0.95;;;;;;;13.64;59.66;99883.88;5039183;28;20021;-64
2023/03/26 04:58:58;;;;;;;5.32;0.80;;;;;;;13.62;59.51;99888.28;5037582;28;20025;-65
2023/03/26 05:01:27;;;;;;;8.05;0.88;;;;;;;13.63;59.50;99879.47;5037849;28;20044;-64
2023/03/26 05:03:52;;;;;;;7.28;0.90;;;;;;;13.64;59.36;99881.22;5039143;28;20118;-65
2023/03/26 05:06:18;;;;;;;6.83;0.70;;;;;;;13.64;59.41;99878.56;5039184;28;20057;-65
2023/03/26 05:08:43;;;;;;;5.90;0.60;;;;;;;13.63;59.21;99888.28;5037429;28;20037;-65
2023/03/26 05:11:10;;;;;;;6.38;0.80;;;;;;;13.64;59.15;99889.16;5038784;28;20053;-64
2023/03/26 05:13:36;;;;;;;6.50;1.00;;;;;;;13.63;59.02;99890.06;5038862;28;20060;-64
2023/03/26 05:16:01;;;;;;;5.55;0.50;;;;;;;13.61;59.09;99889.19;5038838;28;20025;-64
2023/03/26 05:18:27;;;;;;;6.10;1.20;;;;;;;13.60;59.07;99903.34;5058474;28;20075;-65
2023/03/26 05:20:52;;;;;;;6.97;0.80;;;;;;;13.57;58.76;99899.00;5058990;28;20359;-64
2023/03/26 05:23:17;;;;;;;5.50;0.60;;;;;;;13.57;59.05;99909.59;5058637;28;20036;-65
2023/03/26 05:25:43;;;;;;;5.13;0.50;;;;;;;13.57;58.97;99912.22;5058674;28;20094;-65
2023/03/26 05:28:09;;;;;;;4.67;0.60;;;;;;;13.57;58.46;99914.00;5058498;28;20025;-65
2023/03/26 05:30:35;;;;;;;6.55;0.50;;;;;;;13.56;58.82;99917.53;5038328;28;20029;-64
2023/03/26 05:33:01;;;;;;;5.85;0.50;;;;;;;13.53;58.53;99918.50;5038568;28;20034;-64
2023/03/26 05:35:27;;;;;;;8.07;0.75;;;;;;;13.52;58.44;99915.88;5038960;28;20025;-64
2023/03/26 05:37:52;;;;;;;8.97;0.80;;;;;;;13.46;58.41;99922.16;5057558;28;20443;-65
2023/03/26 05:40:18;;;;;;;9.23;1.00;;;;;;;13.43;58.25;99933.69;5054708;28;20022;-64
2023/03/26 05:42:44;;;;;;;7.95;1.05;;;;;;;13.41;58.17;99931.94;5038209;28;20036;-65
2023/03/26 05:45:11;;;;;;;10.70;0.80;;;;;;;13.35;58.29;99936.47;5038689;28;20025;-65
2023/03/26 05:47:36;;;;;;;8.17;0.90;;;;;;;13.30;58.75;99933.06;5038550;28;20021;-65
2023/03/26 05:50:02;;;;;;;12.95;1.65;;;;;;;13.24;59.32;99937.59;5038551;28;20556;-65
2023/03/26 05:52:28;;;;;;;8.70;1.10;;;;;;;13.20;59.73;99949.97;5038336;28;20084;-65
2023/03/26 05:54:53;;;;;;;8.70;0.80;;;;;;;13.11;60.15;99953.69;5036423;28;20116;-65
2023/03/26 05:57:21;;;;;;;9.93;1.30;;;;;;;13.04;60.88;99954.72;5038226;28;20106;-65
2023/03/26 05:59:46;;;;;;;9.23;1.05;;;;;;;13.00;61.50;99955.66;5038371;28;20072;-65
2023/03/26 06:02:12;;;;;;;9.40;1.20;;;;;;;12.90;61.83;99945.28;5037983;28;20037;-65
2023/03/26 06:04:41;;;;;;;10.67;1.13;;;;;;;12.90;61.92;99933.84;5038107;28;20064;-65
2023/03/26 06:07:10;;;;;;;9.05;1.23;;;;;;;12.90;62.17;99947.94;5037851;28;20025;-65
2023/03/26 06:09:37;;;;;;;12.57;1.05;;;;;;;12.88;62.18;99940.91;5037560;28;20029;-65
2023/03/26 06:12:04;;;;;;;11.20;1.30;;;;;;;12.81;62.67;99944.59;5038053;28;20021;-65
2023/03/26 06:14:30;;;;;;;6.00;0.60;;;;;;;12.78;62.37;99946.38;5037867;28;20029;-65
2023/03/26 06:16:55;;;;;;;8.33;0.87;;;;;;;12.80;62.04;99953.41;5057501;28;20028;-65
2023/03/26 06:19:20;;;;;;;6.30;0.60;;;;;;;12.75;62.42;99954.34;5057961;28;20052;-66
2023/03/26 06:21:46;;;;;;;8.10;1.00;;;;;;;12.72;62.21;99964.13;5056466;28;20036;-65
2023/03/26 06:24:11;;;;;;;11.67;1.13;;;;;;;12.69;62.16;99966.81;5057381;28;20386;-66
2023/03/26 06:26:37;;;;;;;4.70;0.60;;;;;;;12.64;61.99;99973.03;5039241;28;20034;-65
2023/03/26 06:29:02;;;;;;;6.43;0.67;;;;;;;12.57;62.16;99981.09;5037737;28;20029;-65
2023/03/26 06:31:27;;;;;;;7.10;0.60;;;;;;;12.55;62.39;99985.53;5038269;28;20029;-65
2023/03/26 06:33:53;;;;;;;5.85;0.70;;;;;;;12.51;62.53;99983.81;5050043;28;20037;-65
2023/03/26 06:36:18;;;;;;;7.47;0.73;;;;;;;12.51;62.47;99978.53;5047898;28;20025;-65
2023/03/26 06:38:44;;;;;;;9.43;0.80;;;;;;;12.53;62.66;99982.91;5036990;28;20031;-65
2023/03/26 06:41:09;;;;;;;7.37;0.70;;;;;;;12.54;63.28;99989.94;5037114;28;20095;-65
2023/03/26 06:43:35;;;;;;;10.10;0.77;;;;;;;12.51;63.85;100000.56;5037374;28;20464;-65
2023/03/26 06:46:01;;;;;;;11.30;1.00;;;;;;;12.45;63.99;100005.94;5037249;28;20061;-65
2023/03/26 06:48:27;;;;;;;6.65;0.88;;;;;;;12.41;64.51;100012.16;5036986;28;20056;-65
2023/03/26 06:50:53;;;;;;;12.20;1.77;;;;;;;12.31;64.62;100003.53;5037120;28;20047;-65
2023/03/26 06:53:19;;;;;;;7.90;0.88;;;;;;;12.25;64.34;100004.50;5037034;28;20067;-65
2023/03/26 06:55:44;;;;;;;7.33;0.77;;;;;;;12.23;63.78;100001.00;5036713;28;20501;-65
2023/03/26 06:58:11;;;;;;;6.60;0.63;;;;;;;12.20;63.31;100001.06;5037013;28;20060;-65
2023/03/26 07:00:37;;;;;;;6.57;0.80;;;;;;;12.19;63.26;100005.44;5036931;28;20068;-65
2023/03/26 07:03:03;;;;;;;11.73;1.08;;;;;;;12.21;63.15;100002.78;5035669;28;20466;-66
2023/03/26 07:05:29;;;;;;;9.68;0.70;;;;;;;12.19;63.10;99994.88;5036344;28;20464;-65
2023/03/26 07:07:54;;;;;;;7.03;0.80;;;;;;;12.20;63.17;99995.78;5036608;28;20025;-65
2023/03/26 07:10:20;;;;;;;6.20;0.73;;;;;;;12.21;63.02;100002.78;5036604;28;20053;-65
2023/03/26 07:12:45;;;;;;;5.60;0.80;;;;;;;12.23;62.77;99995.72;5036701;28;20029;-65
2023/03/26 07:15:11;;;;;;;5.73;0.40;;;;;;;12.27;62.78;99996.53;5036756;28;20314;-65
2023/03/26 07:17:36;;;;;;;7.57;0.70;;;;;;;12.32;63.13;100000.84;5041435;28;20025;-65
2023/03/26 07:20:03;;;;;;;7.90;0.60;;;;;;;12.37;63.42;99989.34;5036135;28;20051;-65
2023/03/26 07:22:29;;;;;;;6.10;0.60;;;;;;;12.41;63.29;99996.31;5037267;28;20025;-65
2023/03/26 07:24:55;;;;;;;7.50;0.87;;;;;;;12.44;64.17;99980.44;5037982;28;20025;-65
2023/03/26 07:27:42;;;;;;;6.55;0.57;;;;;;;12.40;64.48;99973.44;5036141;28;20091;-65
2023/03/26 07:30:23;;;;;;;6.07;0.65;;;;;;;12.39;64.71;99967.31;5035106;28;20033;-65
2023/03/26 07:32:57;;;;;;;7.93;0.90;;;;;;;12.43;64.09;99965.50;5035338;28;20029;-66
2023/03/26 07:35:29;;;;;;;6.07;0.57;;;;;;;12.49;63.84;99974.16;5036145;28;20103;-65
2023/03/26 07:38:16;;;;;;;5.57;0.67;;;;;;;12.53;63.71;99995.22;5038500;28;20022;-65
2023/03/26 07:40:57;;;;;;;5.78;0.70;;;;;;;12.52;62.50;99994.38;5037310;28;20113;-65
2023/03/26 07:43:32;;;;;;;8.13;0.70;;;;;;;12.49;62.64;99997.06;5035187;28;20041;-65
2023/03/26 07:45:58;;;;;;;6.72;0.63;;;;;;;12.43;62.30;100003.31;5036291;28;20021;-65
2023/03/26 07:48:28;;;;;;;6.90;0.90;;;;;;;12.42;61.76;100005.97;5033602;28;20189;-65
2023/03/26 07:50:54;;;;;;;8.88;1.00;;;;;;;12.37;60.35;100014.00;5037421;28;20079;-65
2023/03/26 07:53:21;;;;;;;8.90;1.10;;;;;;;12.28;60.37;100009.72;5036126;28;20094;-65
2023/03/26 07:55:52;;;;;;;10.57;1.00;;;;;;;12.25;60.24;100009.78;5035681;28;20028;-65
2023/03/26 07:58:51;;;;;;;8.50;1.00;;;;;;;12.23;60.15;100001.00;5036533;28;20371;-65
2023/03/26 08:01:30;;;;;;;8.03;0.97;;;;;;;12.20;59.83;99996.63;5037246;28;20022;-65
2023/03/26 08:04:07;;;;;;;8.68;0.80;;;;;;;12.24;59.92;99986.91;5037878;28;20026;-65
2023/03/26 08:06:45;;;;;;;9.65;1.10;;;;;;;12.28;59.72;99993.88;5034172;28;20052;-65
2023/03/26 08:09:16;;;;;;;9.90;0.90;;;;;;;12.34;59.63;99987.63;5035812;28;20096;-65
2023/03/26 08:12:05;;;;;;;9.10;0.80;;;;;;;12.37;59.37;100002.53;5036921;28;20045;-65
2023/03/26 08:14:36;;;;;;;8.73;0.80;;;;;;;12.39;59.49;99990.19;5033152;28;20036;-65
2023/03/26 08:17:27;;;;;;;9.27;1.00;;;;;;;12.41;59.43;99991.03;5038407;28;20017;-65
2023/03/26 08:20:29;;;;;;;8.40;1.02;;;;;;;12.41;59.40;100009.50;5040351;28;20025;-65
2023/03/26 08:23:04;;;;;;;11.93;1.60;;;;;;;12.43;58.64;100000.69;5038305;28;20039;-65
2023/03/26 08:25:39;;;;;;;10.38;1.40;;;;;;;12.47;58.78;100002.38;5040707;28;20029;-65
2023/03/26 08:28:42;;;;;;;9.90;1.00;;;;;;;12.45;58.51;100001.53;5041680;28;20522;-65
2023/03/26 08:31:10;;;;;;;8.15;0.88;;;;;;;12.47;58.74;100015.56;5043987;28;20508;-65
2023/03/26 08:33:36;;;;;;;8.63;1.00;;;;;;;12.51;58.60;100016.41;5046131;28;20029;-65
2023/03/26 08:36:01;;;;;;;9.67;1.00;;;;;;;12.53;58.51;100019.91;5049287;28;20028;-65
2023/03/26 08:38:27;;;;;;;8.07;1.10;;;;;;;12.57;58.13;100020.72;5049802;28;20060;-65
2023/03/26 08:41:04;;;;;;;10.65;0.95;;;;;;;12.58;57.84;100018.03;5045787;28;20025;-65
2023/03/26 08:43:55;;;;;;;9.93;1.33;;;;;;;12.55;58.25;100026.03;5048128;28;20422;-65
2023/03/26 08:46:29;;;;;;;5.80;0.90;;;;;;;12.54;58.30;100026.91;5044987;28;20053;-65
2023/03/26 08:49:14;;;;;;;7.07;1.00;;;;;;;12.51;58.09;100042.81;5044625;28;20560;-65
2023/03/26 08:52:09;;;;;;;7.57;0.70;;;;;;;12.48;58.55;100037.59;5074727;28;20033;-65
2023/03/26 08:54:53;;;;;;;8.25;1.15;;;;;;;12.43;58.98;100039.44;5045102;28;20108;-65
2023/03/26 08:57:28;;;;;;;7.60;0.60;;;;;;;12.44;58.67;100046.47;5043722;28;20018;-65
2023/03/26 09:00:30;;;;;;;6.20;0.82;;;;;;;12.39;58.89;100054.44;5038128;28;20033;-65
2023/03/26 09:03:21;;;;;;;9.20;1.50;;;;;;;12.36;59.12;100054.50;5039253;28;20022;-65
2023/03/26 09:06:43;;;;;;;9.40;1.00;;;;;;;12.33;59.39;100060.69;5039267;28;20021;-65
2023/03/26 09:09:26;;;;;;;7.30;0.85;;;;;;;12.31;59.79;100065.13;5016206;28;20116;-64
2023/03/26 09:12:30;;;;;;;7.32;0.85;;;;;;;12.30;60.88;100076.56;5015958;28;20042;-64
2023/03/26 09:15:58;;;;;;;11.10;1.40;;;;;;;12.22;61.82;100064.38;5035107;28;20059;-64
2023/03/26 09:18:44;;;;;;;8.20;1.20;;;;;;;12.14;61.90;100048.63;5036018;28;20036;-64
2023/03/26 09:21:47;;;;;;;10.45;1.38;;;;;;;12.06;63.22;100052.25;5030809;28;20037;-64
2023/03/26 09:24:34;;;;;;;11.15;1.70;;;;;;;12.03;62.96;100047.03;5055360;28;20115;-63
2023/03/26 09:27:18;;;;;;;9.27;1.80;;;;;;;12.05;63.26;100055.78;5058747;28;20057;-64
2023/03/26 09:29:52;;;;;;;14.05;1.52;;;;;;;12.07;63.30;100050.50;5036986;28;20034;-63
2023/03/26 09:32:52;;;;;;;11.07;1.40;;;;;;;12.08;64.08;100048.72;5038921;28;20104;-63
2023/03/26 09:35:36;;;;;;;8.27;1.27;;;;;;;12.09;64.04;100048.72;5038811;28;20064;-64
2023/03/26 09:38:32;;;;;;;14.95;1.30;;;;;;;12.09;64.63;100043.44;5042049;28;20056;-63
2023/03/26 09:41:13;;;;;;;13.32;1.17;;;;;;;12.13;64.32;100046.88;5039554;28;20434;-64
2023/03/26 09:43:55;;;;;;;11.90;1.60;;;;;;;12.17;64.68;100038.03;5038645;28;20025;-63
2023/03/26 09:46:39;;;;;;;16.37;1.77;;;;;;;12.16;65.27;100049.47;5047643;28;20048;-63
2023/03/26 09:49:27;;;;;;;11.88;1.80;;;;;;;12.16;65.66;100046.84;5027024;28;20060;-64
2023/03/26 09:52:17;;;;;;;12.60;1.50;;;;;;;12.20;65.51;100038.00;5037836;28;20041;-62
2023/03/26 09:55:13;;;;;;;12.55;1.98;;;;;;;12.25;65.35;100045.84;5038348;28;20025;-62
2023/03/26 09:58:03;;;;;;;12.55;2.03;;;;;;;12.28;65.47;100051.97;5038549;28;20445;-62
2023/03/26 10:00:53;;;;;;;15.30;1.93;;;;;;;12.27;65.49;100050.22;5038637;28;20370;-63
2023/03/26 10:03:40;;;;;;;11.65;2.05;;;;;;;12.27;65.96;100055.50;5038052;28;20029;-63
2023/03/26 10:06:20;;;;;;;8.55;1.50;;;;;;;12.29;65.65;100053.69;5029180;28;20100;-65
2023/03/26 10:08:57;;;;;;;16.35;1.50;;;;;;;12.31;65.75;100046.63;5037490;28;20061;-63
2023/03/26 10:11:51;;;;;;;13.85;1.70;;;;;;;12.32;65.65;100050.16;5037739;28;20053;-63
2023/03/26 10:14:32;;;;;;;14.90;1.63;;;;;;;12.30;65.38;100047.53;5037883;28;20129;-65
2023/03/26 10:17:04;;;;;;;11.73;1.60;;;;;;;12.28;65.92;100059.88;5026332;28;20025;-65
2023/03/26 10:19:47;;;;;;;15.45;2.03;;;;;;;12.31;65.66;100049.28;5052042;28;20036;-64
2023/03/26 10:22:16;;;;;;;16.33;1.85;;;;;;;12.34;65.80;100056.28;5057728;28;20025;-65
2023/03/26 10:25:10;;;;;;;13.82;1.90;;;;;;;12.43;65.56;100050.00;5055970;28;20481;-65
2023/03/26 10:27:50;;;;;;;22.50;2.43;;;;;;;12.57;65.86;100037.44;5056375;28;20477;-66
2023/03/26 10:30:42;;;;;;;15.23;1.48;;;;;;;12.73;65.58;100039.84;5050449;28;20124;-66
2023/03/26 10:33:22;;;;;;;16.27;2.45;;;;;;;12.89;64.81;100033.38;5055541;28;20029;-66
2023/03/26 10:36:06;;;;;;;17.58;1.95;;;;;;;12.91;64.83;100028.06;5052123;28;20029;-65
2023/03/26 10:39:12;;;;;;;16.30;2.42;;;;;;;12.91;64.86;100028.97;5037151;28;20033;-65
2023/03/26 10:41:52;;;;;;;18.37;2.93;;;;;;;12.90;65.14;100021.94;5035268;28;20041;-65
2023/03/26 10:44:43;;;;;;;15.80;1.92;;;;;;;12.89;65.00;100022.78;5036983;28;20539;-65
2023/03/26 10:47:27;;;;;;;14.63;1.90;;;;;;;12.88;64.90;100023.69;5037679;28;20052;-66
2023/03/26 10:50:25;;;;;;;15.18;2.25;;;;;;;12.84;64.83;100024.66;5046673;28;20037;-66
2023/03/26 10:53:06;;;;;;;17.45;2.00;;;;;;;12.83;65.81;100022.91;5051644;28;20037;-66
2023/03/26 10:55:38;;;;;;;18.30;2.17;;;;;;;12.95;65.54;100005.13;5035914;28;20430;-65
2023/03/26 10:58:09;;;;;;;13.13;1.88;;;;;;;13.09;65.20;100013.63;5036522;28;20116;-66
2023/03/26 11:00:41;;;;;;;16.88;1.95;;;;;;;13.18;64.83;100024.06;5037045;28;20082;-66
2023/03/26 11:03:44;;;;;;;12.38;1.70;;;;;;;13.25;64.29;100023.94;5036583;28;20542;-66
2023/03/26 11:06:28;;;;;;;17.13;1.92;;;;;;;13.29;64.17;100015.03;5036517;28;20073;-66
2023/03/26 11:09:00;;;;;;;17.60;2.60;;;;;;;13.30;64.63;100022.06;5036298;28;20489;-66
2023/03/26 11:12:01;;;;;;;17.25;2.13;;;;;;;13.39;63.94;100000.75;5037569;28;21480;-66
2023/03/26 11:14:31;;;;;;;16.90;2.13;;;;;;;13.61;63.90;100000.31;5038637;28;20529;-66
2023/03/26 11:17:02;;;;;;;15.00;2.28;;;;;;;14.07;63.31;99995.81;5034675;28;20413;-66
2023/03/26 11:19:39;;;;;;;21.17;2.70;;;;;;;14.57;62.51;99995.50;5033852;28;20029;-66
2023/03/26 11:22:25;;;;;;;18.13;2.40;;;;;;;15.13;61.81;99988.78;5036971;28;20026;-66
2023/03/26 11:25:02;;;;;;;14.93;2.17;;;;;;;15.61;60.69;99968.00;5036540;28;20025;-65
2023/03/26 11:28:22;;;;;;;10.88;1.75;;;;;;;15.97;59.36;99983.75;5036682;28;20021;-66
2023/03/26 11:30:57;;;;;;;16.63;2.13;;;;;;;16.32;58.64;99973.78;5014648;28;20104;-66
2023/03/26 11:33:31;;;;;;;12.60;2.00;;;;;;;16.59;57.83;99971.13;5036679;28;20029;-66
2023/03/26 11:36:02;;;;;;;19.67;3.00;;;;;;;16.84;55.87;99980.03;5036704;28;20021;-66
2023/03/26 11:38:38;;;;;;;14.93;1.88;;;;;;;16.68;53.48;99969.06;5036417;28;20044;-67
2023/03/26 11:41:11;;;;;;;15.15;2.28;;;;;;;16.40;53.34;99970.00;5036501;28;20021;-67
2023/03/26 11:43:36;;;;;;;17.30;3.03;;;;;;;16.26;53.00;99968.66;5036805;28;20492;-66
2023/03/26 11:46:07;;;;;;;14.90;2.33;;;;;;;16.09;53.32;99971.00;5036649;28;20025;-66
2023/03/26 11:48:39;;;;;;;14.40;1.63;;;;;;;15.93;53.58;99955.53;5035761;28;20489;-66
2023/03/26 11:51:09;;;;;;;27.95;6.05;;;;;;;15.82;54.33;99952.34;5031502;28;20030;-66
2023/03/26 11:53:45;;;;;;;19.07;2.60;;;;;;;15.80;54.40;99960.34;5037171;28;20435;-66
2023/03/26 11:56:26;;;;;;;16.15;2.33;;;;;;;15.74;53.91;99948.09;5040766;28;20544;-66